Aviation Digital Data Service (ADDS)

Output produced by METARs form (0451 UTC 01 July 2015)
found at http://aviationweather.gov/adds/metars/
 
KEWN 302320Z 0100/0124 20010G15KT P6SM SCT060 
     FM010300 20009KT P6SM VCSH BKN060 
     FM010800 23005KT P6SM SCT060 BKN120 
     FM011400 25008KT P6SM SCT250